Time;durP1;ratioP1;P1;durP2;ratioP2;P2;SDS_P1;SDS_P2;PMS_P1;PMS_P2;Temp;Humidity;BMP_temperature;BMP_pressure;BME280_temperature;BME280_humidity;BME280_pressure;Samples;Min_cycle;Max_cycle;Signal;HPM_P1;HPM_P2
2022/09/12 00:02:13;;;;;;;9.50;2.25;;;;;;;22.98;62.57;99472.75;6214515;23;20068;-80
2022/09/12 00:04:40;;;;;;;8.88;2.42;;;;;;;23.11;62.78;99500.53;6212839;23;20558;-80
2022/09/12 00:07:07;;;;;;;4.05;1.90;;;;;;;23.28;62.41;99527.56;6214750;23;20016;-81
2022/09/12 00:09:34;;;;;;;6.47;3.17;;;;;;;23.19;62.46;99527.06;6217720;23;20025;-84
2022/09/12 00:12:01;;;;;;;4.38;1.58;;;;;;;23.08;62.76;99495.63;6217411;23;20025;-86
2022/09/12 00:14:30;;;;;;;4.78;2.13;;;;;;;22.44;62.23;99366.84;6214563;23;20463;-86
2022/09/12 00:16:58;;;;;;;4.22;2.20;;;;;;;23.26;62.65;99507.19;6213502;23;20027;-86
2022/09/12 00:19:27;;;;;;;4.88;2.22;;;;;;;23.38;62.31;99497.53;6218552;23;20024;-86
2022/09/12 00:21:55;;;;;;;6.43;2.35;;;;;;;23.09;62.69;99448.84;6222865;23;20017;-90
2022/09/12 00:24:26;;;;;;;5.10;2.00;;;;;;;22.83;62.47;99407.06;6211443;23;20095;-85
2022/09/12 00:26:53;;;;;;;8.23;1.83;;;;;;;23.38;62.07;99480.44;6209759;23;20043;-86
2022/09/12 00:29:21;;;;;;;9.77;2.33;;;;;;;23.29;62.42;99438.03;6217040;23;20352;-86
2022/09/12 00:31:48;;;;;;;6.65;2.10;;;;;;;22.97;61.92;99362.91;6214264;23;20067;-86
2022/09/12 00:34:15;;;;;;;5.25;2.55;;;;;;;23.09;61.50;99369.13;6214446;23;20032;-85
2022/09/12 00:36:42;;;;;;;3.53;2.03;;;;;;;23.38;61.43;99418.59;6213025;23;20021;-85
2022/09/12 00:39:13;;;;;;;4.13;1.80;;;;;;;23.41;61.14;99377.91;6212380;23;20031;-85
2022/09/12 00:41:40;;;;;;;8.48;2.38;;;;;;;23.48;60.68;99377.13;6213642;23;20043;-85
2022/09/12 00:44:23;;;;;;;7.05;2.45;;;;;;;23.78;60.67;99385.50;6212362;23;20028;-87
2022/09/12 00:47:29;;;;;;;8.73;1.80;;;;;;;23.77;60.97;99388.75;6213923;23;20017;-85
2022/09/12 00:50:06;;;;;;;5.50;2.50;;;;;;;23.95;60.44;99401.06;6137736;23;20020;-86
2022/09/12 00:53:06;;;;;;;5.68;1.70;;;;;;;23.85;60.87;99438.91;6212625;23;20021;-85
2022/09/12 00:55:42;;;;;;;3.53;1.75;;;;;;;23.72;61.17;99407.03;6216882;23;20020;-86
2022/09/12 00:58:18;;;;;;;5.95;2.10;;;;;;;23.22;60.98;99306.97;6215137;23;20031;-86
2022/09/12 01:00:46;;;;;;;6.93;2.20;;;;;;;23.80;61.31;99400.19;6214230;23;20027;-85
2022/09/12 01:03:16;;;;;;;6.32;2.42;;;;;;;23.70;60.84;99378.13;6216712;23;20317;-86
2022/09/12 01:05:54;;;;;;;6.00;2.17;;;;;;;23.64;60.40;99360.56;6214039;23;20020;-85
2022/09/12 01:08:22;;;;;;;5.88;2.13;;;;;;;23.17;60.78;99296.75;6215591;23;20024;-85
2022/09/12 01:10:50;;;;;;;4.40;1.42;;;;;;;23.78;60.92;99402.59;6215805;23;20031;-85
2022/09/12 01:13:24;;;;;;;2.92;1.98;;;;;;;23.53;60.99;99338.91;6215145;23;20052;-87
2022/09/12 01:15:53;;;;;;;5.20;1.88;;;;;;;22.62;60.88;99167.84;6213849;23;20355;-85
2022/09/12 01:18:25;;;;;;;5.75;1.60;;;;;;;23.89;60.59;99351.34;6214692;23;20415;-85
2022/09/12 01:20:59;;;;;;;2.72;1.58;;;;;;;23.97;60.44;99335.09;6216673;23;20027;-86
2022/09/12 01:23:38;;;;;;;4.75;1.77;;;;;;;24.04;60.28;99358.75;6212045;23;20016;-85
2022/09/12 01:26:40;;;;;;;3.78;1.77;;;;;;;24.01;60.50;99384.41;6213704;23;20027;-86
2022/09/12 01:29:42;;;;;;;1.52;1.35;;;;;;;23.93;60.99;99392.13;6214011;23;20027;-86
2022/09/12 01:32:30;;;;;;;9.50;1.45;;;;;;;23.91;60.59;99373.78;6211498;23;20025;-85
2022/09/12 01:35:07;;;;;;;4.18;1.30;;;;;;;23.81;60.66;99373.31;6214280;23;20028;-85
2022/09/12 01:37:37;;;;;;;3.67;1.90;;;;;;;23.83;60.56;99359.47;6214692;23;20035;-85
2022/09/12 01:40:15;;;;;;;4.72;2.08;;;;;;;23.84;60.88;99337.47;6212597;23;20020;-85
2022/09/12 01:43:17;;;;;;;4.10;1.50;;;;;;;24.00;60.44;99345.69;6212445;23;20043;-85
2022/09/12 01:45:55;;;;;;;4.60;2.35;;;;;;;23.93;60.22;99357.91;6191647;23;20027;-86
2022/09/12 01:48:34;;;;;;;4.60;1.77;;;;;;;23.98;60.07;99374.63;6211520;23;20033;-87
2022/09/12 01:51:45;;;;;;;5.38;1.85;;;;;;;24.06;60.31;99406.81;6215226;23;20039;-87
2022/09/12 01:54:29;;;;;;;4.80;1.73;;;;;;;24.10;61.10;99396.25;6213612;23;20024;-86
2022/09/12 01:57:03;;;;;;;6.93;1.70;;;;;;;24.09;60.38;99383.22;6212908;23;20355;-86
2022/09/12 01:59:38;;;;;;;4.70;2.38;;;;;;;24.18;60.37;99394.28;6216477;23;20043;-86
2022/09/12 02:02:12;;;;;;;4.20;1.88;;;;;;;24.28;60.11;99414.28;6215791;23;20027;-85
2022/09/12 02:04:59;;;;;;;5.65;1.80;;;;;;;24.21;60.38;99400.00;6216520;23;20396;-85
2022/09/12 02:07:50;;;;;;;4.57;1.40;;;;;;;24.22;60.43;99410.16;6216783;23;20025;-84
2022/09/12 02:10:29;;;;;;;5.97;1.80;;;;;;;24.21;60.03;99408.53;6215246;23;20031;-86
2022/09/12 02:13:14;;;;;;;3.53;1.67;;;;;;;24.21;59.90;99405.69;6216515;23;20021;-85
2022/09/12 02:15:55;;;;;;;5.13;2.05;;;;;;;24.12;59.66;99376.72;6214338;23;20024;-85
2022/09/12 02:18:24;;;;;;;3.70;1.52;;;;;;;24.22;59.62;99397.94;6219351;23;20039;-85
2022/09/12 02:20:53;;;;;;;4.15;1.52;;;;;;;24.24;59.74;99421.16;6220913;23;20038;-84
2022/09/12 02:23:25;;;;;;;7.07;2.05;;;;;;;24.17;59.50;99401.16;6226159;23;20032;-84
2022/09/12 02:25:57;;;;;;;5.70;1.65;;;;;;;24.11;59.57;99410.13;6231512;23;20028;-84
2022/09/12 02:28:29;;;;;;;6.20;2.05;;;;;;;24.34;58.79;99438.34;6224511;23;20025;-84
2022/09/12 02:30:59;;;;;;;4.32;2.08;;;;;;;24.51;58.37;99416.00;6221296;23;20021;-84
2022/09/12 02:33:35;;;;;;;2.92;1.48;;;;;;;24.17;58.11;99373.50;6213903;23;20448;-85
2022/09/12 02:36:22;;;;;;;3.00;1.55;;;;;;;24.44;57.76;99427.41;6212273;23;20030;-84
2022/09/12 02:38:50;;;;;;;4.00;1.45;;;;;;;24.40;57.63;99415.13;6215221;23;20032;-82
2022/09/12 02:41:19;;;;;;;5.40;1.85;;;;;;;24.34;57.65;99423.25;6213305;23;20031;-84
2022/09/12 02:43:49;;;;;;;7.35;2.25;;;;;;;24.36;58.10;99420.81;6212151;23;20020;-84
2022/09/12 02:46:25;;;;;;;6.47;2.20;;;;;;;24.26;58.56;99382.47;6213999;23;20027;-84
2022/09/12 02:48:54;;;;;;;7.78;1.77;;;;;;;24.28;58.93;99391.47;6214693;23;20043;-86
2022/09/12 02:51:21;;;;;;;5.60;2.42;;;;;;;24.21;58.94;99379.22;6212870;23;20025;-85
2022/09/12 02:53:50;;;;;;;6.70;2.25;;;;;;;24.16;59.54;99426.03;6212235;23;20440;-85
2022/09/12 02:56:27;;;;;;;5.55;2.38;;;;;;;23.93;59.16;99377.88;6211980;23;20028;-85
2022/09/12 02:58:58;;;;;;;3.10;1.73;;;;;;;23.82;59.86;99403.44;6212855;23;20021;-85
2022/09/12 03:01:28;;;;;;;10.18;2.33;;;;;;;24.01;60.19;99427.19;6213698;23;20475;-84
2022/09/12 03:04:23;;;;;;;7.53;2.20;;;;;;;23.76;60.38;99427.84;6214142;23;20021;-84
2022/09/12 03:07:04;;;;;;;6.95;2.15;;;;;;;23.77;60.69;99469.41;6215735;23;20025;-85
2022/09/12 03:09:51;;;;;;;5.28;1.77;;;;;;;23.68;61.21;99446.09;6213881;23;20040;-84
2022/09/12 03:12:48;;;;;;;7.57;3.50;;;;;;;23.60;61.06;99424.44;6212915;23;20067;-85
2022/09/12 03:15:30;;;;;;;4.50;2.47;;;;;;;23.60;61.10;99410.19;6213899;23;20028;-85
2022/09/12 03:18:10;;;;;;;2.80;1.58;;;;;;;23.69;61.22;99407.84;6215778;23;20027;-86
2022/09/12 03:21:07;;;;;;;7.63;1.95;;;;;;;23.58;61.25;99369.88;6215707;23;20021;-86
2022/09/12 03:23:54;;;;;;;3.55;1.75;;;;;;;23.64;61.33;99383.34;6213174;23;20071;-85
2022/09/12 03:26:57;;;;;;;3.97;1.60;;;;;;;23.52;62.02;99357.22;6212423;23;20028;-86
2022/09/12 03:29:26;;;;;;;9.23;2.33;;;;;;;23.78;61.58;99390.38;6166684;23;20025;-86
2022/09/12 03:31:56;;;;;;;2.55;1.48;;;;;;;23.83;61.76;99382.28;6214604;23;20058;-87
2022/09/12 03:34:26;;;;;;;5.05;2.10;;;;;;;23.74;61.60;99366.75;6211912;23;20070;-86
2022/09/12 03:36:57;;;;;;;5.70;1.45;;;;;;;23.92;61.40;99378.25;6213726;23;20360;-86
2022/09/12 03:39:25;;;;;;;3.35;1.20;;;;;;;23.79;61.46;99364.31;6214858;23;20021;-86
2022/09/12 03:41:54;;;;;;;6.22;1.70;;;;;;;23.84;61.70;99383.91;6214904;23;20355;-85
2022/09/12 03:44:21;;;;;;;5.07;1.25;;;;;;;23.83;61.81;99385.13;6212876;23;20025;-85
2022/09/12 03:46:48;;;;;;;7.03;1.40;;;;;;;23.63;61.37;99361.78;6212340;23;20016;-85
2022/09/12 03:49:14;;;;;;;6.57;2.10;;;;;;;23.57;61.52;99340.56;6214366;23;20021;-86
2022/09/12 03:51:42;;;;;;;4.78;1.90;;;;;;;23.85;61.34;99368.44;6212754;23;20031;-86
2022/09/12 03:54:09;;;;;;;2.75;1.13;;;;;;;23.83;61.08;99345.22;6214479;23;20096;-86
2022/09/12 03:56:36;;;;;;;4.93;1.52;;;;;;;23.96;60.87;99370.53;6214031;23;20043;-86
2022/09/12 03:59:05;;;;;;;2.30;1.25;;;;;;;24.03;60.58;99368.50;6212185;23;20021;-85
2022/09/12 04:01:33;;;;;;;3.73;1.40;;;;;;;24.05;60.58;99376.69;6213285;23;20084;-85
2022/09/12 04:04:00;;;;;;;4.15;1.55;;;;;;;24.20;60.49;99409.75;6211993;23;20027;-86
2022/09/12 04:06:27;;;;;;;2.63;1.08;;;;;;;24.02;60.07;99380.34;6213619;23;20035;-85
2022/09/12 04:08:54;;;;;;;4.72;1.60;;;;;;;23.99;59.98;99370.53;6215518;23;20025;-85
2022/09/12 04:11:22;;;;;;;4.72;1.20;;;;;;;24.01;59.64;99384.41;6214571;23;20035;-86
2022/09/12 04:13:49;;;;;;;1.85;1.00;;;;;;;24.16;59.68;99405.25;6215241;23;20023;-86
2022/09/12 04:16:17;;;;;;;1.95;1.00;;;;;;;24.17;59.21;99390.59;6211335;23;20024;-86
2022/09/12 04:18:45;;;;;;;5.40;1.02;;;;;;;23.91;58.98;99365.22;6210168;23;20024;-86
2022/09/12 04:21:15;;;;;;;3.10;1.02;;;;;;;23.97;59.00;99377.88;6212016;23;20028;-85
2022/09/12 04:23:42;;;;;;;6.22;1.42;;;;;;;24.02;58.93;99411.69;6214903;23;20021;-86
2022/09/12 04:26:10;;;;;;;5.88;1.25;;;;;;;24.09;59.05;99412.53;6213657;23;20024;-86
2022/09/12 04:28:38;;;;;;;3.25;0.98;;;;;;;23.94;58.87;99399.44;6212166;23;20025;-86
2022/09/12 04:31:07;;;;;;;2.33;0.85;;;;;;;23.74;59.14;99384.66;6214500;23;20025;-85
2022/09/12 04:33:35;;;;;;;;;;;;;;;23.71;59.80;99419.66;6217233;23;20020;-85
2022/09/12 04:36:11;;;;;;;4.40;1.30;;;;;;;23.28;60.05;99393.69;6215705;23;19920;-85
2022/09/12 04:38:38;;;;;;;1.35;0.90;;;;;;;23.03;60.83;99406.88;6213809;23;20016;-85
2022/09/12 04:41:11;;;;;;;4.78;1.17;;;;;;;23.06;61.17;99432.53;6213208;23;20021;-84
2022/09/12 04:43:38;;;;;;;1.67;0.90;;;;;;;22.88;62.26;99446.56;6212237;23;20017;-85
2022/09/12 04:46:07;;;;;;;2.47;1.13;;;;;;;22.68;62.62;99428.06;6214787;23;20023;-86
2022/09/12 04:48:34;;;;;;;2.03;1.38;;;;;;;22.56;62.85;99436.84;6213866;23;20079;-86
2022/09/12 04:51:14;;;;;;;3.97;1.35;;;;;;;22.61;64.02;99430.81;6215122;23;20020;-87
2022/09/12 04:53:42;;;;;;;4.47;1.38;;;;;;;22.59;64.15;99419.00;6213173;23;20021;-86
2022/09/12 04:56:11;;;;;;;1.95;1.23;;;;;;;22.60;65.17;99429.19;6214185;23;20024;-86
2022/09/12 04:58:38;;;;;;;6.32;1.08;;;;;;;22.41;65.59;99385.47;6214262;23;20021;-86
2022/09/12 05:01:20;;;;;;;2.63;1.15;;;;;;;22.40;65.67;99369.63;6215967;23;20020;-87
2022/09/12 05:03:49;;;;;;;5.55;1.30;;;;;;;22.42;65.58;99375.72;6215752;23;20020;-87
2022/09/12 05:06:19;;;;;;;3.93;1.10;;;;;;;22.53;66.27;99394.94;6213304;23;20498;-86
2022/09/12 05:08:46;;;;;;;2.72;1.10;;;;;;;22.41;65.98;99370.44;6212818;23;20027;-86
2022/09/12 05:11:16;;;;;;;5.35;1.30;;;;;;;22.68;66.78;99386.19;6214186;23;20078;-86
2022/09/12 05:13:49;;;;;;;7.30;1.20;;;;;;;22.70;66.77;99371.56;6213458;23;20020;-86
2022/09/12 05:16:17;;;;;;;2.83;0.77;;;;;;;22.46;66.67;99328.25;6214302;23;20028;-86
2022/09/12 05:18:45;;;;;;;1.20;0.90;;;;;;;22.94;67.18;99399.50;6215765;23;20021;-86
2022/09/12 05:21:15;;;;;;;4.28;1.15;;;;;;;23.01;66.74;99392.22;6212215;23;20085;-86
2022/09/12 05:23:42;;;;;;;6.53;1.10;;;;;;;22.85;67.49;99379.03;6213453;23;20017;-86
2022/09/12 05:26:14;;;;;;;3.28;0.93;;;;;;;22.95;67.42;99403.16;6216179;23;20335;-86
2022/09/12 05:28:42;;;;;;;2.42;1.10;;;;;;;22.85;67.56;99418.06;6215025;23;20035;-86
2022/09/12 05:31:13;;;;;;;1.23;0.70;;;;;;;22.86;67.68;99429.06;6215938;23;20390;-86
2022/09/12 05:33:42;;;;;;;5.47;1.23;;;;;;;22.75;67.87;99418.78;6215223;23;20017;-86
2022/09/12 05:36:14;;;;;;;5.33;1.30;;;;;;;22.72;67.99;99440.28;6213765;23;20021;-85
2022/09/12 05:38:41;;;;;;;5.75;2.42;;;;;;;22.76;68.31;99449.69;6215555;23;20025;-84
2022/09/12 05:41:13;;;;;;;7.57;3.80;;;;;;;22.63;68.71;99417.84;6218224;23;20021;-85
2022/09/12 05:43:54;;;;;;;10.00;6.28;;;;;;;23.02;68.57;99439.41;6233117;23;20028;-84
2022/09/12 05:46:24;;;;;;;6.47;2.17;;;;;;;23.15;68.66;99420.84;6230622;23;20033;-88
2022/09/12 05:48:53;;;;;;;6.10;2.75;;;;;;;23.16;68.34;99433.84;6235451;23;20024;-88
2022/09/12 05:51:27;;;;;;;8.00;3.72;;;;;;;22.98;69.18;99401.56;6215196;23;20046;-82
2022/09/12 05:53:57;;;;;;;2.90;1.75;;;;;;;23.07;69.14;99419.13;6211859;23;20017;-82
2022/09/12 05:56:27;;;;;;;2.60;1.50;;;;;;;23.04;69.01;99397.13;6212080;23;20024;-79
2022/09/12 05:58:59;;;;;;;2.88;1.98;;;;;;;23.00;69.82;99390.59;6210998;23;20024;-81
2022/09/12 06:01:31;;;;;;;2.78;1.88;;;;;;;22.86;69.60;99383.50;6211172;23;20027;-87
2022/09/12 06:04:05;;;;;;;1.30;0.90;;;;;;;23.07;70.13;99411.38;6212284;23;20352;-79
2022/09/12 06:06:37;;;;;;;5.15;2.13;;;;;;;22.98;69.58;99399.53;6213246;23;20042;-78
2022/09/12 06:09:05;;;;;;;7.32;2.15;;;;;;;23.08;69.36;99398.00;6214358;23;20359;-90
2022/09/12 06:11:34;;;;;;;5.50;2.35;;;;;;;22.91;70.12;99379.50;6211718;23;20031;-83
2022/09/12 06:14:01;;;;;;;5.37;1.67;;;;;;;23.16;69.83;99416.78;6211835;23;20337;-84
2022/09/12 06:16:33;;;;;;;4.43;1.52;;;;;;;22.81;69.75;99335.50;6211770;23;20242;-84
2022/09/12 06:19:02;;;;;;;10.10;2.60;;;;;;;23.14;69.88;99402.09;6213378;23;20043;-82
2022/09/12 06:21:34;;;;;;;;;;;;;;;22.95;69.67;99397.47;6212948;23;20031;-81
2022/09/12 06:24:01;;;;;;;2.22;1.55;;;;;;;22.70;69.63;99372.41;6214088;23;19942;-89
2022/09/12 06:26:29;;;;;;;2.05;1.30;;;;;;;22.75;69.92;99399.69;6210668;23;20021;-84
2022/09/12 06:28:58;;;;;;;5.20;2.30;;;;;;;22.71;69.73;99384.59;6211807;23;20028;-84
2022/09/12 06:31:28;;;;;;;3.47;1.52;;;;;;;22.46;70.10;99318.88;6210857;23;20024;-83
2022/09/12 06:33:56;;;;;;;5.68;1.55;;;;;;;22.62;70.32;99367.00;6211840;23;20031;-83
2022/09/12 06:36:26;;;;;;;4.32;1.75;;;;;;;22.62;70.14;99367.81;6211455;23;20463;-84
2022/09/12 06:39:02;;;;;;;3.40;1.85;;;;;;;22.35;70.60;99327.31;6212790;23;20021;-84
2022/09/12 06:41:31;;;;;;;4.97;2.17;;;;;;;22.59;70.34;99353.56;6211830;23;20352;-84
2022/09/12 06:43:59;;;;;;;1.55;1.27;;;;;;;22.39;70.64;99342.41;6210313;23;20032;-86
2022/09/12 06:46:27;;;;;;;4.47;1.50;;;;;;;22.17;70.59;99310.06;6211229;23;20367;-84
2022/09/12 06:48:59;;;;;;;4.93;1.88;;;;;;;22.37;70.56;99350.50;6211036;23;20021;-83
2022/09/12 06:51:27;;;;;;;1.95;1.42;;;;;;;22.11;71.18;99308.72;6208953;23;20024;-87
2022/09/12 06:53:55;;;;;;;5.18;2.00;;;;;;;22.35;70.78;99352.91;6211356;23;20351;-87
2022/09/12 06:56:25;;;;;;;3.45;1.90;;;;;;;22.45;70.83;99360.72;6211936;23;20025;-87
2022/09/12 06:58:55;;;;;;;8.23;3.28;;;;;;;22.21;71.07;99332.84;6211022;23;20024;-87
2022/09/12 07:01:23;;;;;;;;;;;;;;;22.58;71.33;99394.63;6211972;23;20043;-87
2022/09/12 07:03:52;;;;;;;7.15;2.53;;;;;;;22.67;71.31;99390.25;6211058;23;19927;-89
2022/09/12 07:06:23;;;;;;;8.05;2.17;;;;;;;22.77;71.12;99394.41;6211076;23;20028;-87
2022/09/12 07:08:50;;;;;;;11.27;2.97;;;;;;;22.60;70.93;99389.38;6209917;23;20028;-88
2022/09/12 07:11:25;;;;;;;6.30;2.30;;;;;;;22.76;70.89;99389.91;6216898;23;20020;-86
2022/09/12 07:13:55;;;;;;;9.77;2.58;;;;;;;22.73;70.51;99398.41;6216719;23;20016;-87
2022/09/12 07:16:22;;;;;;;4.35;1.50;;;;;;;22.87;70.52;99399.41;6220203;23;20027;-86
2022/09/12 07:18:51;;;;;;;2.75;1.33;;;;;;;22.81;70.16;99392.41;6219650;23;20108;-86
2022/09/12 07:21:19;;;;;;;4.93;1.98;;;;;;;22.86;70.27;99394.91;6218594;23;20032;-87
2022/09/12 07:23:46;;;;;;;12.38;2.63;;;;;;;22.79;69.95;99346.44;6220670;23;20023;-86
2022/09/12 07:26:15;;;;;;;5.38;2.38;;;;;;;22.76;69.88;99317.94;6222875;23;20020;-86
2022/09/12 07:28:43;;;;;;;3.78;2.03;;;;;;;22.95;69.85;99343.38;6221391;23;20037;-87
2022/09/12 07:31:13;;;;;;;3.97;1.50;;;;;;;23.06;69.45;99360.53;6221300;23;20028;-86
2022/09/12 07:33:41;;;;;;;2.10;1.38;;;;;;;23.18;69.37;99368.78;6217503;23;20020;-86
2022/09/12 07:36:17;;;;;;;5.30;1.80;;;;;;;23.23;68.67;99370.44;6214880;23;20076;-86
2022/09/12 07:38:45;;;;;;;9.48;2.03;;;;;;;23.37;68.77;99368.50;6211684;23;20483;-87
2022/09/12 07:41:15;;;;;;;3.28;1.77;;;;;;;23.26;67.93;99339.13;6215069;23;20140;-87
2022/09/12 07:43:42;;;;;;;5.97;1.42;;;;;;;23.40;67.79;99362.03;6214580;23;20096;-87
2022/09/12 07:46:10;;;;;;;4.13;1.52;;;;;;;23.30;67.59;99342.81;6213306;23;20021;-87
2022/09/12 07:48:38;;;;;;;2.50;1.35;;;;;;;23.34;66.92;99359.94;6214662;23;20036;-88
2022/09/12 07:51:08;;;;;;;4.07;1.67;;;;;;;23.39;66.88;99349.00;6215191;23;20024;-88
2022/09/12 07:53:40;;;;;;;6.18;1.80;;;;;;;23.24;66.68;99310.22;6212796;23;20016;-86
2022/09/12 07:56:09;;;;;;;4.72;1.95;;;;;;;23.49;66.01;99355.19;6212814;23;20021;-86
2022/09/12 07:58:37;;;;;;;5.75;1.90;;;;;;;23.55;65.70;99364.97;6214437;23;20027;-86
2022/09/12 08:01:11;;;;;;;5.30;1.70;;;;;;;23.47;65.86;99369.00;6215345;23;20021;-86
2022/09/12 08:03:40;;;;;;;8.38;2.25;;;;;;;23.14;65.72;99345.13;6208357;23;20459;-86
2022/09/12 08:06:12;;;;;;;3.95;1.80;;;;;;;23.30;66.29;99365.63;6210622;23;20021;-86
2022/09/12 08:08:40;;;;;;;4.88;2.03;;;;;;;23.18;65.94;99334.63;6213049;23;20031;-86
2022/09/12 08:11:13;;;;;;;5.03;2.20;;;;;;;23.32;65.56;99343.25;6216811;23;20020;-86
2022/09/12 08:13:41;;;;;;;3.80;2.60;;;;;;;23.46;65.54;99355.97;6213905;23;20381;-84
2022/09/12 08:16:12;;;;;;;4.18;1.63;;;;;;;23.53;65.73;99351.13;6210026;23;20029;-86
2022/09/12 08:18:40;;;;;;;5.22;2.35;;;;;;;23.60;65.25;99361.75;6210581;23;20463;-89
2022/09/12 08:21:13;;;;;;;9.82;2.33;;;;;;;23.24;65.47;99295.97;6211191;23;20029;-85
2022/09/12 08:23:41;;;;;;;4.53;2.00;;;;;;;23.56;65.04;99366.63;6209320;23;20049;-85
2022/09/12 08:26:10;;;;;;;5.40;2.53;;;;;;;23.25;65.39;99360.31;6210092;23;20031;-84
2022/09/12 08:28:39;;;;;;;5.20;2.22;;;;;;;22.83;65.87;99320.84;6211148;23;20368;-87
2022/09/12 08:31:08;;;;;;;;;;;;;;;22.99;66.71;99351.94;6211231;23;20032;-86
2022/09/12 08:33:35;;;;;;;4.38;1.80;;;;;;;22.68;66.57;99329.28;6211574;23;20260;-90
2022/09/12 08:36:04;;;;;;;8.82;2.97;;;;;;;22.48;66.58;99297.38;6212106;23;20027;-86
2022/09/12 08:38:31;;;;;;;4.18;2.50;;;;;;;22.71;67.12;99328.50;6212861;23;20031;-86
2022/09/12 08:41:16;;;;;;;6.18;2.60;;;;;;;22.89;66.41;99339.22;6211971;23;20354;-86
2022/09/12 08:44:20;;;;;;;5.82;2.88;;;;;;;22.83;66.67;99352.16;6214551;23;20029;-86
2022/09/12 08:47:12;;;;;;;8.73;2.85;;;;;;;22.71;67.08;99354.09;6212519;23;20329;-85
2022/09/12 08:50:04;;;;;;;7.57;2.67;;;;;;;22.79;67.12;99374.91;6215064;23;20493;-85
2022/09/12 08:52:52;;;;;;;7.35;2.00;;;;;;;22.44;67.67;99373.34;6215251;23;20031;-85
2022/09/12 08:55:22;;;;;;;4.03;2.63;;;;;;;22.22;68.75;99379.97;6216137;23;20023;-87
2022/09/12 08:57:50;;;;;;;7.15;2.63;;;;;;;22.02;69.40;99376.47;6219019;23;20031;-88
2022/09/12 09:00:19;;;;;;;1.42;1.13;;;;;;;21.74;70.34;99376.88;6219846;23;20017;-90
2022/09/12 09:02:53;;;;;;;3.80;3.25;;;;;;;21.40;72.15;99398.69;6235679;23;20056;-89
2022/09/12 09:05:53;;;;;;;6.85;1.98;;;;;;;20.63;74.44;99362.91;6241411;23;20016;-87
2022/09/12 09:08:38;;;;;;;1.25;0.98;;;;;;;20.72;75.35;99367.13;6230665;23;20021;-88
2022/09/12 09:11:47;;;;;;;1.88;1.38;;;;;;;20.64;75.75;99375.88;6240708;23;20048;-85
2022/09/12 09:14:47;;;;;;;2.55;2.03;;;;;;;20.27;76.71;99325.31;6239630;23;20020;-86
2022/09/12 09:17:24;;;;;;;48.33;45.35;;;;;;;20.11;78.95;99331.09;6241554;23;20024;-86
2022/09/12 09:20:03;;;;;;;37.97;35.58;;;;;;;20.33;79.40;99338.00;6232637;23;20523;-84
2022/09/12 09:22:46;;;;;;;33.38;31.25;;;;;;;20.51;80.02;99335.53;6226018;23;20031;-86
2022/09/12 09:25:22;;;;;;;3.22;1.52;;;;;;;19.86;80.66;99259.75;6227283;23;20004;-84
2022/09/12 09:28:01;;;;;;;4.95;2.13;;;;;;;20.62;80.95;99328.06;6232249;23;20028;-86
2022/09/12 09:30:28;;;;;;;4.28;2.08;;;;;;;20.36;81.67;99255.03;6224408;23;20103;-85
2022/09/12 09:32:59;;;;;;;6.88;2.15;;;;;;;21.14;81.75;99266.88;6210902;23;20021;-89
2022/09/12 09:35:55;;;;;;;5.55;2.85;;;;;;;22.12;80.22;99259.22;6210718;23;20017;-86
2022/09/12 09:38:24;;;;;;;5.45;2.55;;;;;;;23.15;78.94;99232.88;6211008;23;20052;-85
2022/09/12 09:40:57;;;;;;;4.43;2.28;;;;;;;23.97;77.13;99275.22;6213178;23;20020;-90
2022/09/12 09:43:27;;;;;;;2.60;1.35;;;;;;;24.22;76.28;99310.34;6213552;23;20036;-85
2022/09/12 09:46:00;;;;;;;3.13;1.60;;;;;;;23.82;75.58;99266.59;6214901;23;20020;-86
2022/09/12 09:48:33;;;;;;;7.20;2.00;;;;;;;23.83;75.38;99298.81;6210875;23;20131;-85
2022/09/12 09:51:05;;;;;;;2.05;1.52;;;;;;;23.64;74.32;99295.00;6211827;23;20032;-87
2022/09/12 09:54:00;;;;;;;2.45;1.77;;;;;;;23.75;73.88;99317.06;6214081;23;20024;-86
2022/09/12 09:56:32;;;;;;;5.93;2.40;;;;;;;23.95;75.11;99338.34;6210865;23;20542;-86
2022/09/12 09:59:16;;;;;;;4.97;2.35;;;;;;;24.09;74.67;99329.03;6215165;23;20020;-87
2022/09/12 10:01:53;;;;;;;5.60;1.80;;;;;;;24.07;74.42;99306.63;6213795;23;20107;-86
2022/09/12 10:04:26;;;;;;;5.38;1.45;;;;;;;23.94;74.06;99298.84;6218342;23;20099;-87
2022/09/12 10:06:59;;;;;;;8.00;2.63;;;;;;;24.21;74.42;99322.16;6213337;23;20027;-85
2022/09/12 10:09:34;;;;;;;9.15;2.05;;;;;;;24.28;74.33;99317.28;6212500;23;20024;-85
2022/09/12 10:12:27;;;;;;;4.15;2.10;;;;;;;24.42;74.75;99304.31;6213539;23;20025;-87
2022/09/12 10:14:59;;;;;;;6.40;2.70;;;;;;;24.69;74.54;99314.13;6215095;23;20024;-85
2022/09/12 10:17:49;;;;;;;6.00;2.90;;;;;;;24.54;74.03;99307.56;6213955;23;20030;-88
2022/09/12 10:20:39;;;;;;;3.03;2.38;;;;;;;24.57;75.28;99345.91;6213113;23;20327;-85
2022/09/12 10:23:28;;;;;;;;;;;;;;;23.30;76.08;99337.13;6214985;23;20024;-88
2022/09/12 10:26:00;;;;;;;6.25;2.65;;;;;;;23.05;77.03;99330.44;6217670;23;19926;-91
2022/09/12 10:28:46;;;;;;;3.67;2.50;;;;;;;22.87;76.97;99341.63;6213202;23;20363;-85
2022/09/12 10:31:27;;;;;;;6.68;2.80;;;;;;;22.69;78.02;99295.94;6211765;23;20025;-84
2022/09/12 10:33:58;;;;;;;3.88;2.70;;;;;;;23.28;77.62;99325.34;6209866;23;20038;-84
2022/09/12 10:36:35;;;;;;;5.13;2.53;;;;;;;23.25;75.89;99254.91;6212585;23;20029;-86
2022/09/12 10:39:03;;;;;;;5.85;2.10;;;;;;;24.07;75.73;99323.75;6212387;23;20336;-85
2022/09/12 10:41:38;;;;;;;4.95;1.77;;;;;;;24.18;74.39;99298.09;6213780;23;20028;-84
2022/09/12 10:44:15;;;;;;;4.95;2.47;;;;;;;24.50;73.78;99328.78;6212074;23;20040;-85
2022/09/12 10:46:42;;;;;;;3.90;2.63;;;;;;;24.34;73.53;99269.19;6228393;23;20072;-83
2022/09/12 10:49:21;;;;;;;5.57;1.85;;;;;;;24.46;72.51;99259.47;6236348;23;20331;-82
2022/09/12 10:51:48;;;;;;;2.70;2.15;;;;;;;24.72;71.34;99267.63;6236899;23;20025;-83
2022/09/12 10:54:19;;;;;;;3.22;2.53;;;;;;;24.64;70.98;99257.44;6217415;23;20024;-84
2022/09/12 10:57:17;;;;;;;4.18;2.42;;;;;;;24.79;69.88;99256.22;6217910;23;20028;-82
2022/09/12 10:59:43;;;;;;;3.67;1.92;;;;;;;24.96;71.38;99246.00;6214840;23;20017;-84
2022/09/12 11:02:44;;;;;;;1.67;1.50;;;;;;;24.79;69.76;99227.66;6210057;23;20103;-85
2022/09/12 11:05:14;;;;;;;2.65;2.35;;;;;;;25.03;69.96;99242.31;6212257;23;20021;-82
2022/09/12 11:08:01;;;;;;;3.35;2.78;;;;;;;24.98;68.77;99259.88;6212206;23;20059;-84
2022/09/12 11:10:46;;;;;;;1.40;1.25;;;;;;;24.82;67.47;99246.84;6211965;23;20024;-82
2022/09/12 11:13:23;;;;;;;5.97;5.47;;;;;;;24.90;68.00;99263.97;6213961;23;20021;-83
2022/09/12 11:15:58;;;;;;;3.22;1.55;;;;;;;24.95;69.05;99272.09;6212383;23;20039;-84
2022/09/12 11:18:31;;;;;;;5.50;2.03;;;;;;;25.01;66.20;99251.28;6215080;23;20025;-84
2022/09/12 11:21:22;;;;;;;1.83;1.48;;;;;;;24.58;68.24;99239.06;6212761;23;20477;-86
2022/09/12 11:24:14;;;;;;;2.40;1.63;;;;;;;24.41;68.59;99251.28;6213519;23;20020;-90
2022/09/12 11:26:53;;;;;;;5.90;1.55;;;;;;;24.14;66.14;99225.97;6214784;23;20507;-86
2022/09/12 11:29:26;;;;;;;2.38;1.25;;;;;;;24.54;66.86;99243.97;6213313;23;20033;-84
2022/09/12 11:32:17;;;;;;;1.80;1.17;;;;;;;24.82;66.40;99248.88;6211868;23;20417;-82
2022/09/12 11:35:12;;;;;;;1.40;1.23;;;;;;;24.74;66.78;99208.06;6213784;23;20021;-87
2022/09/12 11:37:46;;;;;;;2.47;1.75;;;;;;;25.13;66.80;99252.94;6212692;23;20021;-83
2022/09/12 11:40:42;;;;;;;4.00;1.05;;;;;;;25.27;65.18;99241.50;6212612;23;20021;-83
2022/09/12 11:43:31;;;;;;;0.60;0.60;;;;;;;25.40;65.25;99249.59;6211862;23;20027;-86
2022/09/12 11:46:18;;;;;;;2.47;1.70;;;;;;;25.08;64.57;99199.06;6214136;23;20048;-84
2022/09/12 11:49:13;;;;;;;0.60;0.60;;;;;;;25.20;64.79;99212.13;6213485;23;20033;-86
2022/09/12 11:52:04;;;;;;;1.95;0.73;;;;;;;25.26;63.60;99234.16;6213824;23;20396;-85
2022/09/12 11:54:40;;;;;;;2.22;0.80;;;;;;;25.36;63.93;99248.81;6212369;23;20027;-83
2022/09/12 11:57:35;;;;;;;1.98;0.80;;;;;;;25.27;63.97;99212.91;6213071;23;20025;-84
2022/09/12 12:00:17;;;;;;;0.90;0.80;;;;;;;25.17;63.19;99178.66;6210419;23;20042;-85
2022/09/12 12:03:05;;;;;;;1.15;1.05;;;;;;;25.70;62.97;99198.44;6212328;23;20347;-85
2022/09/12 12:05:50;;;;;;;1.80;0.90;;;;;;;26.63;62.60;99205.63;6213261;23;20039;-87
2022/09/12 12:08:21;;;;;;;2.47;1.58;;;;;;;26.32;63.07;99130.22;6210522;23;20020;-82
2022/09/12 12:10:50;;;;;;;2.88;1.20;;;;;;;26.96;63.51;99218.44;6212777;23;20029;-85